sensor_id;sensor_type;location;lat;lon;timestamp;P1;durP1;ratioP1;P2;durP2;ratioP2
26540;SDS011;14206;50.202;10.948;2023-03-08T00:01:32;0.50;;;0.50;;
26540;SDS011;14206;50.202;10.948;2023-03-08T00:03:59;0.80;;;0.60;;
26540;SDS011;14206;50.202;10.948;2023-03-08T00:06:26;0.57;;;0.43;;
26540;SDS011;14206;50.202;10.948;2023-03-08T00:08:54;0.50;;;0.47;;
26540;SDS011;14206;50.202;10.948;2023-03-08T00:11:22;0.50;;;0.50;;
26540;SDS011;14206;50.202;10.948;2023-03-08T00:13:49;0.50;;;0.50;;
26540;SDS011;14206;50.202;10.948;2023-03-08T00:16:15;0.40;;;0.40;;
26540;SDS011;14206;50.202;10.948;2023-03-08T00:18:42;0.47;;;0.40;;
26540;SDS011;14206;50.202;10.948;2023-03-08T00:21:16;0.43;;;0.43;;
26540;SDS011;14206;50.202;10.948;2023-03-08T00:23:44;0.32;;;0.32;;
26540;SDS011;14206;50.202;10.948;2023-03-08T00:26:11;0.40;;;0.30;;
26540;SDS011;14206;50.202;10.948;2023-03-08T00:28:39;0.40;;;0.40;;
26540;SDS011;14206;50.202;10.948;2023-03-08T00:31:08;0.40;;;0.40;;
26540;SDS011;14206;50.202;10.948;2023-03-08T00:33:37;0.25;;;0.25;;
26540;SDS011;14206;50.202;10.948;2023-03-08T00:36:05;0.40;;;0.40;;
26540;SDS011;14206;50.202;10.948;2023-03-08T00:38:36;0.28;;;0.28;;
26540;SDS011;14206;50.202;10.948;2023-03-08T00:41:03;0.47;;;0.47;;
26540;SDS011;14206;50.202;10.948;2023-03-08T00:43:30;0.40;;;0.40;;
26540;SDS011;14206;50.202;10.948;2023-03-08T00:46:01;0.40;;;0.38;;
26540;SDS011;14206;50.202;10.948;2023-03-08T00:48:29;0.40;;;0.40;;
26540;SDS011;14206;50.202;10.948;2023-03-08T00:50:56;0.40;;;0.35;;
26540;SDS011;14206;50.202;10.948;2023-03-08T00:53:23;0.43;;;0.30;;
26540;SDS011;14206;50.202;10.948;2023-03-08T00:55:50;0.30;;;0.30;;
26540;SDS011;14206;50.202;10.948;2023-03-08T00:58:19;0.40;;;0.40;;
26540;SDS011;14206;50.202;10.948;2023-03-08T01:00:46;0.50;;;0.50;;
26540;SDS011;14206;50.202;10.948;2023-03-08T01:03:14;0.35;;;0.35;;
26540;SDS011;14206;50.202;10.948;2023-03-08T01:05:42;0.30;;;0.30;;
26540;SDS011;14206;50.202;10.948;2023-03-08T01:08:12;0.40;;;0.40;;
26540;SDS011;14206;50.202;10.948;2023-03-08T01:10:39;1.92;;;0.45;;
26540;SDS011;14206;50.202;10.948;2023-03-08T01:13:12;0.50;;;0.50;;
26540;SDS011;14206;50.202;10.948;2023-03-08T01:15:39;0.40;;;0.40;;
26540;SDS011;14206;50.202;10.948;2023-03-08T01:18:06;0.30;;;0.30;;
26540;SDS011;14206;50.202;10.948;2023-03-08T01:20:33;0.40;;;0.40;;
26540;SDS011;14206;50.202;10.948;2023-03-08T01:23:01;0.40;;;0.40;;
26540;SDS011;14206;50.202;10.948;2023-03-08T01:25:28;0.20;;;0.20;;
26540;SDS011;14206;50.202;10.948;2023-03-08T01:27:55;0.30;;;0.30;;
26540;SDS011;14206;50.202;10.948;2023-03-08T01:30:22;0.50;;;0.50;;
26540;SDS011;14206;50.202;10.948;2023-03-08T01:32:49;0.40;;;0.40;;
26540;SDS011;14206;50.202;10.948;2023-03-08T01:35:16;0.38;;;0.38;;
26540;SDS011;14206;50.202;10.948;2023-03-08T01:37:49;0.50;;;0.50;;
26540;SDS011;14206;50.202;10.948;2023-03-08T01:40:19;0.40;;;0.40;;
26540;SDS011;14206;50.202;10.948;2023-03-08T01:42:47;0.40;;;0.40;;
26540;SDS011;14206;50.202;10.948;2023-03-08T01:48:34;0.32;;;0.32;;
26540;SDS011;14206;50.202;10.948;2023-03-08T01:51:28;0.50;;;0.50;;
26540;SDS011;14206;50.202;10.948;2023-03-08T01:54:03;0.47;;;0.45;;
26540;SDS011;14206;50.202;10.948;2023-03-08T01:56:33;0.60;;;0.60;;
26540;SDS011;14206;50.202;10.948;2023-03-08T01:59:02;0.55;;;0.55;;
26540;SDS011;14206;50.202;10.948;2023-03-08T02:01:30;0.50;;;0.50;;
26540;SDS011;14206;50.202;10.948;2023-03-08T02:03:58;0.60;;;0.60;;
26540;SDS011;14206;50.202;10.948;2023-03-08T02:06:27;0.70;;;0.70;;
26540;SDS011;14206;50.202;10.948;2023-03-08T02:08:54;0.57;;;0.52;;
26540;SDS011;14206;50.202;10.948;2023-03-08T02:11:21;0.60;;;0.60;;
26540;SDS011;14206;50.202;10.948;2023-03-08T02:13:51;0.40;;;0.40;;
26540;SDS011;14206;50.202;10.948;2023-03-08T02:16:21;0.60;;;0.60;;
26540;SDS011;14206;50.202;10.948;2023-03-08T02:19:50;0.50;;;0.50;;
26540;SDS011;14206;50.202;10.948;2023-03-08T02:21:50;1.15;;;0.52;;
26540;SDS011;14206;50.202;10.948;2023-03-08T02:24:18;0.50;;;0.50;;
26540;SDS011;14206;50.202;10.948;2023-03-08T02:26:47;0.55;;;0.50;;
26540;SDS011;14206;50.202;10.948;2023-03-08T02:29:16;0.80;;;0.80;;
26540;SDS011;14206;50.202;10.948;2023-03-08T02:31:43;0.73;;;0.73;;
26540;SDS011;14206;50.202;10.948;2023-03-08T02:34:10;1.60;;;1.20;;
26540;SDS011;14206;50.202;10.948;2023-03-08T02:36:37;2.20;;;1.75;;
26540;SDS011;14206;50.202;10.948;2023-03-08T02:39:03;1.85;;;1.63;;
26540;SDS011;14206;50.202;10.948;2023-03-08T02:41:30;2.80;;;2.15;;
26540;SDS011;14206;50.202;10.948;2023-03-08T02:43:57;3.17;;;2.45;;
26540;SDS011;14206;50.202;10.948;2023-03-08T02:46:24;4.20;;;3.30;;
26540;SDS011;14206;50.202;10.948;2023-03-08T02:48:50;5.00;;;3.58;;
26540;SDS011;14206;50.202;10.948;2023-03-08T02:51:19;5.05;;;3.67;;
26540;SDS011;14206;50.202;10.948;2023-03-08T02:53:46;4.10;;;3.38;;
26540;SDS011;14206;50.202;10.948;2023-03-08T02:56:13;4.30;;;3.38;;
26540;SDS011;14206;50.202;10.948;2023-03-08T02:58:40;6.05;;;3.67;;
26540;SDS011;14206;50.202;10.948;2023-03-08T03:01:10;4.03;;;3.00;;
26540;SDS011;14206;50.202;10.948;2023-03-08T03:03:38;3.80;;;3.03;;
26540;SDS011;14206;50.202;10.948;2023-03-08T03:06:40;5.07;;;3.35;;
26540;SDS011;14206;50.202;10.948;2023-03-08T03:08:59;4.05;;;3.30;;
26540;SDS011;14206;50.202;10.948;2023-03-08T03:11:26;5.03;;;3.33;;
26540;SDS011;14206;50.202;10.948;2023-03-08T03:13:54;4.47;;;3.45;;
26540;SDS011;14206;50.202;10.948;2023-03-08T03:16:26;4.68;;;3.60;;
26540;SDS011;14206;50.202;10.948;2023-03-08T03:18:54;5.40;;;3.75;;
26540;SDS011;14206;50.202;10.948;2023-03-08T03:21:22;5.40;;;4.00;;
26540;SDS011;14206;50.202;10.948;2023-03-08T03:23:49;5.78;;;4.18;;
26540;SDS011;14206;50.202;10.948;2023-03-08T03:26:20;4.80;;;3.88;;
26540;SDS011;14206;50.202;10.948;2023-03-08T03:28:51;4.15;;;3.50;;
26540;SDS011;14206;50.202;10.948;2023-03-08T03:31:21;4.00;;;3.40;;
26540;SDS011;14206;50.202;10.948;2023-03-08T03:33:49;4.60;;;3.53;;
26540;SDS011;14206;50.202;10.948;2023-03-08T03:36:17;4.80;;;3.88;;
26540;SDS011;14206;50.202;10.948;2023-03-08T03:38:46;4.32;;;3.38;;
26540;SDS011;14206;50.202;10.948;2023-03-08T03:41:15;4.50;;;3.70;;
26540;SDS011;14206;50.202;10.948;2023-03-08T03:43:45;4.55;;;3.58;;
26540;SDS011;14206;50.202;10.948;2023-03-08T03:46:14;5.43;;;4.30;;
26540;SDS011;14206;50.202;10.948;2023-03-08T03:48:46;4.32;;;3.65;;
26540;SDS011;14206;50.202;10.948;2023-03-08T03:51:17;4.15;;;3.28;;
26540;SDS011;14206;50.202;10.948;2023-03-08T03:53:50;4.38;;;3.30;;
26540;SDS011;14206;50.202;10.948;2023-03-08T03:56:20;3.65;;;3.00;;
26540;SDS011;14206;50.202;10.948;2023-03-08T03:58:51;3.80;;;3.00;;
26540;SDS011;14206;50.202;10.948;2023-03-08T04:01:23;3.72;;;2.70;;
26540;SDS011;14206;50.202;10.948;2023-03-08T04:04:01;4.28;;;3.08;;
26540;SDS011;14206;50.202;10.948;2023-03-08T04:06:32;3.28;;;2.60;;
26540;SDS011;14206;50.202;10.948;2023-03-08T04:09:00;3.92;;;3.13;;
26540;SDS011;14206;50.202;10.948;2023-03-08T04:11:33;4.55;;;3.63;;
26540;SDS011;14206;50.202;10.948;2023-03-08T04:14:03;4.32;;;3.60;;
26540;SDS011;14206;50.202;10.948;2023-03-08T04:16:32;4.95;;;3.88;;
26540;SDS011;14206;50.202;10.948;2023-03-08T04:19:06;5.88;;;4.47;;
26540;SDS011;14206;50.202;10.948;2023-03-08T04:21:38;4.85;;;3.88;;
26540;SDS011;14206;50.202;10.948;2023-03-08T04:24:05;4.50;;;3.35;;
26540;SDS011;14206;50.202;10.948;2023-03-08T04:26:33;5.45;;;4.10;;
26540;SDS011;14206;50.202;10.948;2023-03-08T04:29:00;6.25;;;4.93;;
26540;SDS011;14206;50.202;10.948;2023-03-08T04:31:33;5.43;;;4.25;;
26540;SDS011;14206;50.202;10.948;2023-03-08T04:34:04;6.53;;;5.13;;
26540;SDS011;14206;50.202;10.948;2023-03-08T04:36:32;6.68;;;5.07;;
26540;SDS011;14206;50.202;10.948;2023-03-08T04:38:59;6.13;;;4.80;;
26540;SDS011;14206;50.202;10.948;2023-03-08T04:41:27;6.50;;;4.68;;
26540;SDS011;14206;50.202;10.948;2023-03-08T04:44:20;5.45;;;4.35;;
26540;SDS011;14206;50.202;10.948;2023-03-08T04:46:50;5.45;;;4.03;;
26540;SDS011;14206;50.202;10.948;2023-03-08T04:49:23;4.87;;;3.50;;
26540;SDS011;14206;50.202;10.948;2023-03-08T04:51:56;4.40;;;3.35;;
26540;SDS011;14206;50.202;10.948;2023-03-08T04:54:23;4.03;;;3.10;;
26540;SDS011;14206;50.202;10.948;2023-03-08T04:56:57;4.05;;;3.15;;
26540;SDS011;14206;50.202;10.948;2023-03-08T04:59:24;3.78;;;3.13;;
26540;SDS011;14206;50.202;10.948;2023-03-08T05:01:54;3.88;;;3.08;;
26540;SDS011;14206;50.202;10.948;2023-03-08T05:04:22;3.17;;;2.50;;
26540;SDS011;14206;50.202;10.948;2023-03-08T05:06:48;3.60;;;2.75;;
26540;SDS011;14206;50.202;10.948;2023-03-08T05:09:20;3.47;;;2.75;;
26540;SDS011;14206;50.202;10.948;2023-03-08T05:11:49;3.83;;;3.00;;
26540;SDS011;14206;50.202;10.948;2023-03-08T05:14:16;3.47;;;2.75;;
26540;SDS011;14206;50.202;10.948;2023-03-08T05:16:43;4.07;;;3.15;;
26540;SDS011;14206;50.202;10.948;2023-03-08T05:19:10;4.72;;;3.00;;
26540;SDS011;14206;50.202;10.948;2023-03-08T05:21:55;3.78;;;2.97;;
26540;SDS011;14206;50.202;10.948;2023-03-08T05:24:22;4.80;;;3.13;;
26540;SDS011;14206;50.202;10.948;2023-03-08T05:26:49;3.30;;;2.70;;
26540;SDS011;14206;50.202;10.948;2023-03-08T05:29:16;3.90;;;3.10;;
26540;SDS011;14206;50.202;10.948;2023-03-08T05:31:43;4.55;;;3.47;;
26540;SDS011;14206;50.202;10.948;2023-03-08T05:34:13;3.78;;;3.00;;
26540;SDS011;14206;50.202;10.948;2023-03-08T05:36:44;4.20;;;3.17;;
26540;SDS011;14206;50.202;10.948;2023-03-08T05:39:10;4.15;;;3.13;;
26540;SDS011;14206;50.202;10.948;2023-03-08T05:41:48;4.35;;;3.08;;
26540;SDS011;14206;50.202;10.948;2023-03-08T05:44:21;5.07;;;3.30;;
26540;SDS011;14206;50.202;10.948;2023-03-08T05:46:49;4.47;;;3.10;;
26540;SDS011;14206;50.202;10.948;2023-03-08T05:49:17;4.15;;;3.10;;
26540;SDS011;14206;50.202;10.948;2023-03-08T05:51:44;4.60;;;3.40;;
26540;SDS011;14206;50.202;10.948;2023-03-08T05:54:11;4.28;;;3.22;;
26540;SDS011;14206;50.202;10.948;2023-03-08T05:56:40;4.60;;;3.40;;
26540;SDS011;14206;50.202;10.948;2023-03-08T05:59:14;5.18;;;3.78;;
26540;SDS011;14206;50.202;10.948;2023-03-08T06:01:41;5.10;;;3.85;;
26540;SDS011;14206;50.202;10.948;2023-03-08T06:04:19;4.50;;;3.50;;
26540;SDS011;14206;50.202;10.948;2023-03-08T06:06:48;4.70;;;3.60;;
26540;SDS011;14206;50.202;10.948;2023-03-08T06:09:17;5.90;;;3.60;;
26540;SDS011;14206;50.202;10.948;2023-03-08T06:11:44;4.78;;;3.83;;
26540;SDS011;14206;50.202;10.948;2023-03-08T06:14:11;4.78;;;3.40;;
26540;SDS011;14206;50.202;10.948;2023-03-08T06:16:39;6.13;;;3.88;;
26540;SDS011;14206;50.202;10.948;2023-03-08T06:19:06;5.68;;;3.80;;
26540;SDS011;14206;50.202;10.948;2023-03-08T06:21:34;5.38;;;3.70;;
26540;SDS011;14206;50.202;10.948;2023-03-08T06:24:02;4.82;;;3.90;;
26540;SDS011;14206;50.202;10.948;2023-03-08T06:26:29;4.88;;;3.60;;
26540;SDS011;14206;50.202;10.948;2023-03-08T06:28:56;5.10;;;3.78;;
26540;SDS011;14206;50.202;10.948;2023-03-08T06:31:27;4.95;;;3.90;;
26540;SDS011;14206;50.202;10.948;2023-03-08T06:33:54;5.05;;;3.97;;
26540;SDS011;14206;50.202;10.948;2023-03-08T06:36:24;10.90;;;7.15;;
26540;SDS011;14206;50.202;10.948;2023-03-08T06:38:51;6.65;;;5.00;;
26540;SDS011;14206;50.202;10.948;2023-03-08T06:41:18;7.38;;;5.25;;
26540;SDS011;14206;50.202;10.948;2023-03-08T06:43:51;6.35;;;4.97;;
26540;SDS011;14206;50.202;10.948;2023-03-08T06:46:17;5.95;;;4.68;;
26540;SDS011;14206;50.202;10.948;2023-03-08T06:48:46;6.07;;;4.78;;
26540;SDS011;14206;50.202;10.948;2023-03-08T06:51:15;5.70;;;4.63;;
26540;SDS011;14206;50.202;10.948;2023-03-08T06:53:43;6.68;;;4.80;;
26540;SDS011;14206;50.202;10.948;2023-03-08T06:56:14;5.50;;;4.32;;
26540;SDS011;14206;50.202;10.948;2023-03-08T06:58:43;6.20;;;4.63;;
26540;SDS011;14206;50.202;10.948;2023-03-08T07:01:10;4.82;;;4.05;;
26540;SDS011;14206;50.202;10.948;2023-03-08T07:03:39;6.63;;;4.95;;
26540;SDS011;14206;50.202;10.948;2023-03-08T07:06:07;11.90;;;7.78;;
26540;SDS011;14206;50.202;10.948;2023-03-08T07:08:35;10.98;;;8.05;;
26540;SDS011;14206;50.202;10.948;2023-03-08T07:11:04;12.55;;;8.13;;
26540;SDS011;14206;50.202;10.948;2023-03-08T07:13:32;11.57;;;8.52;;
26540;SDS011;14206;50.202;10.948;2023-03-08T07:16:03;12.60;;;8.88;;
26540;SDS011;14206;50.202;10.948;2023-03-08T07:18:31;14.05;;;8.93;;
26540;SDS011;14206;50.202;10.948;2023-03-08T07:20:58;15.13;;;8.82;;
26540;SDS011;14206;50.202;10.948;2023-03-08T07:23:25;14.18;;;9.00;;
26540;SDS011;14206;50.202;10.948;2023-03-08T07:25:52;13.88;;;8.85;;
26540;SDS011;14206;50.202;10.948;2023-03-08T07:28:20;11.43;;;8.40;;
26540;SDS011;14206;50.202;10.948;2023-03-08T07:30:47;14.20;;;9.00;;
26540;SDS011;14206;50.202;10.948;2023-03-08T07:33:15;11.65;;;8.30;;
26540;SDS011;14206;50.202;10.948;2023-03-08T07:35:42;13.80;;;8.43;;
26540;SDS011;14206;50.202;10.948;2023-03-08T07:38:12;12.95;;;8.85;;
26540;SDS011;14206;50.202;10.948;2023-03-08T07:40:39;13.30;;;9.63;;
26540;SDS011;14206;50.202;10.948;2023-03-08T07:43:06;14.45;;;9.40;;
26540;SDS011;14206;50.202;10.948;2023-03-08T07:45:42;15.40;;;9.52;;
26540;SDS011;14206;50.202;10.948;2023-03-08T07:48:09;13.48;;;9.52;;
26540;SDS011;14206;50.202;10.948;2023-03-08T07:50:36;13.82;;;9.77;;
26540;SDS011;14206;50.202;10.948;2023-03-08T07:53:02;14.23;;;9.88;;
26540;SDS011;14206;50.202;10.948;2023-03-08T07:55:29;16.08;;;10.15;;
26540;SDS011;14206;50.202;10.948;2023-03-08T07:57:56;14.32;;;9.30;;
26540;SDS011;14206;50.202;10.948;2023-03-08T08:00:23;14.55;;;9.45;;
26540;SDS011;14206;50.202;10.948;2023-03-08T08:02:50;12.48;;;8.75;;
26540;SDS011;14206;50.202;10.948;2023-03-08T08:05:19;16.80;;;10.02;;
26540;SDS011;14206;50.202;10.948;2023-03-08T08:07:51;13.55;;;9.25;;
26540;SDS011;14206;50.202;10.948;2023-03-08T08:10:18;16.42;;;9.18;;
26540;SDS011;14206;50.202;10.948;2023-03-08T08:12:45;11.85;;;8.70;;
26540;SDS011;14206;50.202;10.948;2023-03-08T08:15:12;14.00;;;9.30;;
26540;SDS011;14206;50.202;10.948;2023-03-08T08:17:39;13.30;;;8.77;;
26540;SDS011;14206;50.202;10.948;2023-03-08T08:20:06;11.63;;;8.57;;
26540;SDS011;14206;50.202;10.948;2023-03-08T08:22:36;13.05;;;8.80;;
26540;SDS011;14206;50.202;10.948;2023-03-08T08:25:06;12.85;;;9.13;;
26540;SDS011;14206;50.202;10.948;2023-03-08T08:27:34;14.25;;;9.18;;
26540;SDS011;14206;50.202;10.948;2023-03-08T08:30:02;14.65;;;9.05;;
26540;SDS011;14206;50.202;10.948;2023-03-08T08:32:31;12.52;;;9.05;;
26540;SDS011;14206;50.202;10.948;2023-03-08T08:34:59;11.77;;;8.52;;
26540;SDS011;14206;50.202;10.948;2023-03-08T08:37:26;12.48;;;8.55;;
26540;SDS011;14206;50.202;10.948;2023-03-08T08:39:53;13.90;;;9.57;;
26540;SDS011;14206;50.202;10.948;2023-03-08T08:42:20;13.13;;;9.10;;
26540;SDS011;14206;50.202;10.948;2023-03-08T08:44:47;11.88;;;8.38;;
26540;SDS011;14206;50.202;10.948;2023-03-08T08:47:14;13.63;;;8.52;;
26540;SDS011;14206;50.202;10.948;2023-03-08T08:49:41;12.73;;;8.57;;
26540;SDS011;14206;50.202;10.948;2023-03-08T08:52:07;12.45;;;8.85;;
26540;SDS011;14206;50.202;10.948;2023-03-08T08:54:34;12.07;;;8.40;;
26540;SDS011;14206;50.202;10.948;2023-03-08T08:57:05;14.63;;;8.25;;
26540;SDS011;14206;50.202;10.948;2023-03-08T08:59:32;13.48;;;8.45;;
26540;SDS011;14206;50.202;10.948;2023-03-08T09:01:59;10.68;;;8.18;;
26540;SDS011;14206;50.202;10.948;2023-03-08T09:04:26;10.73;;;7.57;;
26540;SDS011;14206;50.202;10.948;2023-03-08T09:06:53;15.93;;;10.18;;
26540;SDS011;14206;50.202;10.948;2023-03-08T09:09:20;14.10;;;9.10;;
26540;SDS011;14206;50.202;10.948;2023-03-08T09:11:47;12.73;;;8.18;;
26540;SDS011;14206;50.202;10.948;2023-03-08T09:14:21;14.45;;;10.15;;
26540;SDS011;14206;50.202;10.948;2023-03-08T09:16:48;14.88;;;10.30;;
26540;SDS011;14206;50.202;10.948;2023-03-08T09:19:15;13.70;;;9.48;;
26540;SDS011;14206;50.202;10.948;2023-03-08T09:21:42;15.48;;;10.05;;
26540;SDS011;14206;50.202;10.948;2023-03-08T09:24:09;10.98;;;8.00;;
26540;SDS011;14206;50.202;10.948;2023-03-08T09:26:36;11.93;;;8.25;;
26540;SDS011;14206;50.202;10.948;2023-03-08T09:29:03;12.65;;;8.35;;
26540;SDS011;14206;50.202;10.948;2023-03-08T09:31:33;11.60;;;8.35;;
26540;SDS011;14206;50.202;10.948;2023-03-08T09:34:02;14.85;;;9.52;;
26540;SDS011;14206;50.202;10.948;2023-03-08T09:36:35;13.88;;;8.35;;
26540;SDS011;14206;50.202;10.948;2023-03-08T09:39:05;10.65;;;7.88;;
26540;SDS011;14206;50.202;10.948;2023-03-08T09:41:44;10.70;;;8.05;;
26540;SDS011;14206;50.202;10.948;2023-03-08T09:50:42;10.65;;;7.60;;
26540;SDS011;14206;50.202;10.948;2023-03-08T09:52:56;15.55;;;11.60;;
26540;SDS011;14206;50.202;10.948;2023-03-08T09:55:32;12.00;;;8.85;;
26540;SDS011;14206;50.202;10.948;2023-03-08T09:58:04;10.02;;;7.82;;
26540;SDS011;14206;50.202;10.948;2023-03-08T10:00:41;10.18;;;7.55;;
26540;SDS011;14206;50.202;10.948;2023-03-08T10:03:20;9.48;;;6.93;;
26540;SDS011;14206;50.202;10.948;2023-03-08T10:08:36;6.53;;;5.07;;
26540;SDS011;14206;50.202;10.948;2023-03-08T10:13:53;10.40;;;7.07;;
26540;SDS011;14206;50.202;10.948;2023-03-08T10:16:34;10.68;;;7.65;;
26540;SDS011;14206;50.202;10.948;2023-03-08T10:19:20;8.60;;;6.28;;
26540;SDS011;14206;50.202;10.948;2023-03-08T10:22:14;10.68;;;7.90;;
26540;SDS011;14206;50.202;10.948;2023-03-08T10:25:16;10.00;;;6.55;;
26540;SDS011;14206;50.202;10.948;2023-03-08T10:27:57;10.25;;;6.30;;
26540;SDS011;14206;50.202;10.948;2023-03-08T10:30:33;8.23;;;5.82;;
26540;SDS011;14206;50.202;10.948;2023-03-08T10:33:10;7.25;;;5.53;;
26540;SDS011;14206;50.202;10.948;2023-03-08T10:38:37;7.32;;;5.43;;
26540;SDS011;14206;50.202;10.948;2023-03-08T10:41:09;6.82;;;5.07;;
26540;SDS011;14206;50.202;10.948;2023-03-08T10:46:21;7.32;;;5.05;;
26540;SDS011;14206;50.202;10.948;2023-03-08T10:48:49;5.00;;;3.95;;
26540;SDS011;14206;50.202;10.948;2023-03-08T10:51:18;6.25;;;4.70;;
26540;SDS011;14206;50.202;10.948;2023-03-08T10:53:59;6.28;;;4.95;;
26540;SDS011;14206;50.202;10.948;2023-03-08T10:56:31;5.68;;;4.40;;
26540;SDS011;14206;50.202;10.948;2023-03-08T10:59:05;5.63;;;4.40;;
26540;SDS011;14206;50.202;10.948;2023-03-08T11:01:48;6.40;;;4.72;;
26540;SDS011;14206;50.202;10.948;2023-03-08T11:04:20;6.47;;;4.25;;
26540;SDS011;14206;50.202;10.948;2023-03-08T11:06:49;6.25;;;4.57;;
26540;SDS011;14206;50.202;10.948;2023-03-08T11:09:38;5.95;;;4.32;;
26540;SDS011;14206;50.202;10.948;2023-03-08T11:12:04;7.75;;;5.20;;
26540;SDS011;14206;50.202;10.948;2023-03-08T11:14:31;6.35;;;4.88;;
26540;SDS011;14206;50.202;10.948;2023-03-08T11:20:01;6.20;;;4.60;;
26540;SDS011;14206;50.202;10.948;2023-03-08T11:22:54;6.78;;;5.05;;
26540;SDS011;14206;50.202;10.948;2023-03-08T11:36:37;9.23;;;6.60;;
26540;SDS011;14206;50.202;10.948;2023-03-08T11:42:02;11.90;;;7.35;;
26540;SDS011;14206;50.202;10.948;2023-03-08T11:53:21;10.15;;;7.72;;
26540;SDS011;14206;50.202;10.948;2023-03-08T11:56:13;8.18;;;6.15;;
26540;SDS011;14206;50.202;10.948;2023-03-08T12:01:24;9.07;;;6.60;;
26540;SDS011;14206;50.202;10.948;2023-03-08T12:03:59;8.88;;;6.93;;
26540;SDS011;14206;50.202;10.948;2023-03-08T12:06:36;10.32;;;7.28;;
26540;SDS011;14206;50.202;10.948;2023-03-08T12:11:40;9.25;;;7.38;;
26540;SDS011;14206;50.202;10.948;2023-03-08T12:22:00;9.90;;;7.25;;
26540;SDS011;14206;50.202;10.948;2023-03-08T12:27:02;7.22;;;6.13;;
26540;SDS011;14206;50.202;10.948;2023-03-08T12:32:11;7.00;;;5.97;;
26540;SDS011;14206;50.202;10.948;2023-03-08T12:34:43;6.53;;;5.68;;
26540;SDS011;14206;50.202;10.948;2023-03-08T12:37:22;7.25;;;5.43;;
26540;SDS011;14206;50.202;10.948;2023-03-08T12:39:54;6.75;;;5.53;;
26540;SDS011;14206;50.202;10.948;2023-03-08T12:42:30;7.88;;;5.68;;
26540;SDS011;14206;50.202;10.948;2023-03-08T12:45:12;6.30;;;5.30;;
26540;SDS011;14206;50.202;10.948;2023-03-08T12:47:59;7.50;;;5.93;;
26540;SDS011;14206;50.202;10.948;2023-03-08T12:50:27;6.32;;;5.38;;
26540;SDS011;14206;50.202;10.948;2023-03-08T12:52:54;5.85;;;5.05;;
26540;SDS011;14206;50.202;10.948;2023-03-08T12:55:26;9.15;;;7.20;;
26540;SDS011;14206;50.202;10.948;2023-03-08T12:57:58;9.50;;;7.18;;
26540;SDS011;14206;50.202;10.948;2023-03-08T13:00:31;8.57;;;7.15;;
26540;SDS011;14206;50.202;10.948;2023-03-08T13:03:23;8.45;;;6.65;;
26540;SDS011;14206;50.202;10.948;2023-03-08T13:05:47;11.10;;;9.02;;
26540;SDS011;14206;50.202;10.948;2023-03-08T13:11:10;12.02;;;8.13;;
26540;SDS011;14206;50.202;10.948;2023-03-08T13:16:33;29.98;;;15.48;;
26540;SDS011;14206;50.202;10.948;2023-03-08T13:19:07;20.55;;;11.85;;
26540;SDS011;14206;50.202;10.948;2023-03-08T13:21:48;14.57;;;9.70;;
26540;SDS011;14206;50.202;10.948;2023-03-08T13:24:31;10.70;;;8.18;;
26540;SDS011;14206;50.202;10.948;2023-03-08T13:30:24;8.85;;;7.30;;
26540;SDS011;14206;50.202;10.948;2023-03-08T13:32:56;6.88;;;6.13;;
26540;SDS011;14206;50.202;10.948;2023-03-08T13:35:24;9.30;;;7.18;;
26540;SDS011;14206;50.202;10.948;2023-03-08T13:38:00;9.20;;;7.00;;
26540;SDS011;14206;50.202;10.948;2023-03-08T13:40:27;7.57;;;6.07;;
26540;SDS011;14206;50.202;10.948;2023-03-08T13:42:57;8.95;;;6.90;;
26540;SDS011;14206;50.202;10.948;2023-03-08T13:45:27;7.97;;;6.78;;
26540;SDS011;14206;50.202;10.948;2023-03-08T13:47:55;9.65;;;8.05;;
26540;SDS011;14206;50.202;10.948;2023-03-08T13:53:13;10.82;;;8.63;;
26540;SDS011;14206;50.202;10.948;2023-03-08T13:55:50;10.38;;;8.57;;
26540;SDS011;14206;50.202;10.948;2023-03-08T14:03:50;11.23;;;8.15;;
26540;SDS011;14206;50.202;10.948;2023-03-08T14:06:23;9.35;;;7.60;;
26540;SDS011;14206;50.202;10.948;2023-03-08T14:08:56;8.13;;;6.95;;
26540;SDS011;14206;50.202;10.948;2023-03-08T14:11:29;9.50;;;7.88;;
26540;SDS011;14206;50.202;10.948;2023-03-08T14:13:58;9.43;;;7.63;;
26540;SDS011;14206;50.202;10.948;2023-03-08T14:16:28;8.15;;;6.72;;
26540;SDS011;14206;50.202;10.948;2023-03-08T14:18:58;8.45;;;6.82;;
26540;SDS011;14206;50.202;10.948;2023-03-08T14:21:34;8.65;;;6.95;;
26540;SDS011;14206;50.202;10.948;2023-03-08T14:24:02;8.07;;;6.32;;
26540;SDS011;14206;50.202;10.948;2023-03-08T14:26:33;9.02;;;7.40;;
26540;SDS011;14206;50.202;10.948;2023-03-08T14:31:37;8.13;;;6.88;;
26540;SDS011;14206;50.202;10.948;2023-03-08T14:34:21;7.70;;;6.20;;
26540;SDS011;14206;50.202;10.948;2023-03-08T14:36:57;7.45;;;5.95;;
26540;SDS011;14206;50.202;10.948;2023-03-08T14:39:26;7.22;;;5.47;;
26540;SDS011;14206;50.202;10.948;2023-03-08T14:41:54;7.50;;;5.82;;
26540;SDS011;14206;50.202;10.948;2023-03-08T14:44:26;7.20;;;5.88;;
26540;SDS011;14206;50.202;10.948;2023-03-08T14:46:54;7.28;;;6.10;;
26540;SDS011;14206;50.202;10.948;2023-03-08T14:49:26;8.02;;;6.28;;
26540;SDS011;14206;50.202;10.948;2023-03-08T14:51:54;7.82;;;6.00;;
26540;SDS011;14206;50.202;10.948;2023-03-08T14:54:31;8.02;;;6.60;;
26540;SDS011;14206;50.202;10.948;2023-03-08T14:57:09;8.20;;;6.80;;
26540;SDS011;14206;50.202;10.948;2023-03-08T14:59:43;8.85;;;7.35;;
26540;SDS011;14206;50.202;10.948;2023-03-08T15:02:11;8.73;;;6.70;;
26540;SDS011;14206;50.202;10.948;2023-03-08T15:04:40;8.32;;;6.70;;
26540;SDS011;14206;50.202;10.948;2023-03-08T15:07:13;7.85;;;6.68;;
26540;SDS011;14206;50.202;10.948;2023-03-08T15:09:43;10.93;;;8.07;;
26540;SDS011;14206;50.202;10.948;2023-03-08T15:12:10;9.20;;;7.68;;
26540;SDS011;14206;50.202;10.948;2023-03-08T15:14:38;10.40;;;8.13;;
26540;SDS011;14206;50.202;10.948;2023-03-08T15:17:05;10.45;;;8.20;;
26540;SDS011;14206;50.202;10.948;2023-03-08T15:19:32;11.32;;;8.82;;
26540;SDS011;14206;50.202;10.948;2023-03-08T15:21:59;8.90;;;7.55;;
26540;SDS011;14206;50.202;10.948;2023-03-08T15:24:26;13.95;;;9.95;;
26540;SDS011;14206;50.202;10.948;2023-03-08T15:26:53;19.60;;;12.55;;
26540;SDS011;14206;50.202;10.948;2023-03-08T15:29:26;17.98;;;12.52;;
26540;SDS011;14206;50.202;10.948;2023-03-08T15:31:55;14.43;;;10.30;;
26540;SDS011;14206;50.202;10.948;2023-03-08T15:34:22;11.50;;;8.85;;
26540;SDS011;14206;50.202;10.948;2023-03-08T15:36:53;11.52;;;9.00;;
26540;SDS011;14206;50.202;10.948;2023-03-08T15:39:20;9.48;;;7.57;;
26540;SDS011;14206;50.202;10.948;2023-03-08T15:41:47;10.07;;;8.02;;
26540;SDS011;14206;50.202;10.948;2023-03-08T15:44:14;11.35;;;8.68;;
26540;SDS011;14206;50.202;10.948;2023-03-08T15:46:40;9.70;;;7.80;;
26540;SDS011;14206;50.202;10.948;2023-03-08T15:49:08;11.10;;;8.50;;
26540;SDS011;14206;50.202;10.948;2023-03-08T15:51:36;14.30;;;11.18;;
26540;SDS011;14206;50.202;10.948;2023-03-08T15:54:04;11.35;;;9.40;;
26540;SDS011;14206;50.202;10.948;2023-03-08T15:56:31;11.75;;;8.90;;
26540;SDS011;14206;50.202;10.948;2023-03-08T15:58:58;11.13;;;8.48;;
26540;SDS011;14206;50.202;10.948;2023-03-08T16:01:25;11.65;;;8.50;;
26540;SDS011;14206;50.202;10.948;2023-03-08T16:03:53;11.10;;;8.77;;
26540;SDS011;14206;50.202;10.948;2023-03-08T16:06:22;10.13;;;8.25;;
26540;SDS011;14206;50.202;10.948;2023-03-08T16:08:50;14.70;;;9.88;;
26540;SDS011;14206;50.202;10.948;2023-03-08T16:11:17;12.23;;;10.05;;
26540;SDS011;14206;50.202;10.948;2023-03-08T16:13:48;13.98;;;10.13;;